createdAt,value
2022-10-11T05:39:06.036Z,20.33
2022-10-11T05:41:32.548Z,19.58
2022-10-11T05:43:59.073Z,16.90
2022-10-11T05:46:25.586Z,19.27
2022-10-11T05:48:52.199Z,15.25
2022-10-11T05:51:18.746Z,14.23
2022-10-11T05:53:45.237Z,14.45
2022-10-11T05:56:19.014Z,12.98
2022-10-11T05:58:45.573Z,15.75
2022-10-11T06:01:19.245Z,17.58
2022-10-11T06:03:45.816Z,16.27
2022-10-11T06:06:12.366Z,16.90
2022-10-11T06:08:38.991Z,16.73
2022-10-11T06:11:12.016Z,24.13
2022-10-11T06:13:38.804Z,18.10
2022-10-11T06:16:06.552Z,16.20
2022-10-11T06:18:33.517Z,17.13
2022-10-11T06:21:00.223Z,13.93
2022-10-11T06:23:26.690Z,14.02
2022-10-11T06:26:00.128Z,15.18
2022-10-11T06:28:27.805Z,20.25
2022-10-11T06:30:54.696Z,15.77
2022-10-11T06:33:21.467Z,17.00
2022-10-11T06:35:48.093Z,18.30
2022-10-11T06:38:14.662Z,16.40
2022-10-11T06:40:41.323Z,14.48
2022-10-11T06:43:07.833Z,16.33
2022-10-11T06:45:34.518Z,18.02
2022-10-11T06:48:01.836Z,18.90
2022-10-11T06:50:54.497Z,18.15
2022-10-11T06:53:14.811Z,17.20
2022-10-11T06:55:41.261Z,17.10
2022-10-11T06:58:07.773Z,17.88
2022-10-11T07:00:34.220Z,15.07
2022-10-11T07:03:01.049Z,16.20
2022-10-11T07:05:29.341Z,14.20
2022-10-11T07:07:55.838Z,16.75
2022-10-11T07:10:22.409Z,15.13
2022-10-11T07:12:48.939Z,14.68
2022-10-11T07:15:15.507Z,15.73
2022-10-11T07:17:42.262Z,20.73
2022-10-11T07:20:09.513Z,17.13
2022-10-11T07:22:36.278Z,14.98
2022-10-11T07:25:02.848Z,15.15
2022-10-11T07:27:29.387Z,14.32
2022-10-11T07:29:56.292Z,14.85
2022-10-11T07:32:22.737Z,19.02
2022-10-11T07:34:49.352Z,17.08
2022-10-11T07:37:15.810Z,18.80
2022-10-11T07:39:42.298Z,17.50
2022-10-11T07:42:09.923Z,18.88
2022-10-11T07:44:36.630Z,19.05
2022-10-11T07:47:04.888Z,17.58
2022-10-11T07:49:34.204Z,15.80
2022-10-11T07:52:00.668Z,22.27
2022-10-11T07:54:27.206Z,17.75
2022-10-11T07:56:53.680Z,20.27
2022-10-11T07:59:20.140Z,19.27
2022-10-11T08:01:46.738Z,20.42
2022-10-11T08:04:13.418Z,20.73
2022-10-11T08:06:39.908Z,23.23
2022-10-11T08:09:06.486Z,19.42
2022-10-11T08:11:36.861Z,21.70
2022-10-11T08:14:08.375Z,23.35
2022-10-11T08:16:35.674Z,22.80
2022-10-11T08:19:03.216Z,28.92
2022-10-11T08:21:30.531Z,24.98
2022-10-11T08:24:20.606Z,24.17
2022-10-11T08:26:47.310Z,24.00
2022-10-11T08:29:14.557Z,25.63
2022-10-11T08:31:41.141Z,22.73
2022-10-11T08:34:07.589Z,27.02
2022-10-11T08:36:34.109Z,22.58
2022-10-11T08:39:00.936Z,25.73
2022-10-11T08:41:30.616Z,27.33
2022-10-11T08:44:14.530Z,21.65
2022-10-11T08:46:43.025Z,22.83
2022-10-11T08:49:11.875Z,21.65
2022-10-11T08:51:42.593Z,25.65
2022-10-11T08:54:20.968Z,21.80
2022-10-11T08:56:47.783Z,24.50
2022-10-11T08:59:33.044Z,23.63
2022-10-11T09:02:18.340Z,20.92
2022-10-11T09:04:45.740Z,24.50
2022-10-11T09:07:15.267Z,21.73
2022-10-11T09:10:01.924Z,24.30
2022-10-11T09:12:40.990Z,21.77
2022-10-11T09:15:14.766Z,22.30
2022-10-11T09:17:47.397Z,26.17
2022-10-11T09:20:27.238Z,25.23
2022-10-11T09:22:56.850Z,23.20
2022-10-11T09:25:25.424Z,30.48
2022-10-11T09:28:02.506Z,23.60
2022-10-11T09:30:30.145Z,22.23
2022-10-11T09:33:03.671Z,28.65
2022-10-11T09:35:34.310Z,23.48
2022-10-11T09:38:02.395Z,28.67
2022-10-11T09:40:31.685Z,23.00
2022-10-11T09:42:59.468Z,24.75
2022-10-11T09:45:25.962Z,23.35
2022-10-11T09:47:53.654Z,22.45
2022-10-11T09:50:21.950Z,21.35
2022-10-11T09:55:29.930Z,22.00
2022-10-11T09:57:56.383Z,18.98
2022-10-11T10:00:27.350Z,19.67
2022-10-11T10:02:55.162Z,21.25
2022-10-11T10:05:22.624Z,19.80
2022-10-11T10:08:08.426Z,19.37
2022-10-11T10:10:34.987Z,20.73
2022-10-11T10:13:04.132Z,18.30
2022-10-11T10:15:32.042Z,21.13
2022-10-11T10:17:58.941Z,16.88
2022-10-11T10:20:31.709Z,17.30
2022-10-11T10:23:03.872Z,18.23
2022-10-11T10:25:37.492Z,15.55
2022-10-11T10:28:17.693Z,19.58
2022-10-11T10:30:55.288Z,19.13
2022-10-11T10:33:23.370Z,17.77
2022-10-11T10:35:55.493Z,14.20
2022-10-11T10:38:26.695Z,20.10
2022-10-11T10:40:56.562Z,17.80
2022-10-11T10:43:24.479Z,16.33
2022-10-11T10:45:59.930Z,16.92
2022-10-11T10:49:18.848Z,16.42
2022-10-11T10:51:46.627Z,16.77
2022-10-11T10:54:19.305Z,14.68
2022-10-11T10:57:03.004Z,17.50
2022-10-11T10:59:32.493Z,22.35
2022-10-11T11:02:28.117Z,20.98
2022-10-11T11:05:12.083Z,17.05
2022-10-11T11:07:43.719Z,15.55
2022-10-11T11:10:17.137Z,15.02
2022-10-11T11:12:59.163Z,13.48
2022-10-11T11:15:38.137Z,15.77
2022-10-11T11:18:13.660Z,19.40
2022-10-11T11:21:02.841Z,18.75
2022-10-11T11:23:48.114Z,15.85
2022-10-11T11:26:14.490Z,14.52
2022-10-11T11:28:51.383Z,19.42
2022-10-11T11:31:29.966Z,16.55
2022-10-11T11:33:59.524Z,18.38
2022-10-11T11:36:44.684Z,15.75
2022-10-11T11:39:21.788Z,24.27
2022-10-11T11:41:51.497Z,13.30
2022-10-11T11:44:27.086Z,16.20
2022-10-11T11:47:00.533Z,15.05
2022-10-11T11:49:30.859Z,15.73
2022-10-11T11:51:58.561Z,15.35
2022-10-11T11:54:43.507Z,15.48
2022-10-11T11:57:32.520Z,13.65
2022-10-11T12:00:05.186Z,12.75
2022-10-11T12:02:46.542Z,17.23
2022-10-11T12:05:14.781Z,14.93
2022-10-11T12:10:24.989Z,15.13
2022-10-11T12:13:02.348Z,15.23
2022-10-11T12:15:29.017Z,14.18
2022-10-11T12:17:58.196Z,14.70
2022-10-11T12:20:26.196Z,15.23
2022-10-11T12:22:52.670Z,14.57
2022-10-11T12:25:22.103Z,18.45
2022-10-11T12:27:48.603Z,16.20
2022-10-11T12:30:33.513Z,16.73
2022-10-11T12:33:06.162Z,13.27
2022-10-11T12:35:33.330Z,13.82
2022-10-11T12:38:35.399Z,18.08
2022-10-11T12:41:07.768Z,15.68
2022-10-11T12:43:36.333Z,15.55
2022-10-11T12:46:21.271Z,13.75
2022-10-11T12:48:52.664Z,15.52
2022-10-11T12:51:22.136Z,12.90
2022-10-11T12:54:25.000Z,12.50
2022-10-11T12:56:47.577Z,12.30
2022-10-11T12:59:18.587Z,12.43
2022-10-11T13:01:52.713Z,17.13
2022-10-11T13:04:21.569Z,21.35
2022-10-11T13:06:49.673Z,14.07
2022-10-11T13:09:19.193Z,16.45
2022-10-11T13:11:57.132Z,16.00
2022-10-11T13:14:24.919Z,13.98
2022-10-11T13:17:00.085Z,16.90
2022-10-11T13:19:27.838Z,15.27
2022-10-11T13:21:55.737Z,15.43
2022-10-11T13:24:23.291Z,16.92
2022-10-11T13:26:50.801Z,15.23
2022-10-11T13:29:19.136Z,16.30
2022-10-11T13:34:12.747Z,14.90
2022-10-11T13:36:39.335Z,24.02
2022-10-11T13:39:05.805Z,14.98
2022-10-11T13:41:32.766Z,22.73
2022-10-11T13:44:00.130Z,16.27
2022-10-11T13:46:28.232Z,16.93
2022-10-11T13:49:02.472Z,21.42
2022-10-11T13:51:34.947Z,13.65
2022-10-11T13:54:13.293Z,17.10
2022-10-11T13:56:49.620Z,15.93
2022-10-11T13:59:18.183Z,15.73
2022-10-11T14:01:45.431Z,13.52
2022-10-11T14:04:13.480Z,15.63
2022-10-11T14:06:49.021Z,16.27
2022-10-11T14:09:23.776Z,19.50
2022-10-11T14:11:50.372Z,18.58
2022-10-11T14:14:28.835Z,14.48
2022-10-11T14:17:15.571Z,15.30
2022-10-11T14:19:42.755Z,19.40
2022-10-11T14:22:15.363Z,19.30
2022-10-11T14:24:42.584Z,13.13
2022-10-11T14:27:17.369Z,10.35
2022-10-11T14:30:00.337Z,12.50
2022-10-11T14:32:33.209Z,15.52
2022-10-11T14:35:00.029Z,11.75
2022-10-11T14:37:26.588Z,15.02
2022-10-11T14:39:53.068Z,11.52
2022-10-11T14:42:19.606Z,15.63
2022-10-11T14:44:46.148Z,15.93
2022-10-11T14:47:16.349Z,15.15
2022-10-11T14:49:43.007Z,13.00
2022-10-11T14:52:11.747Z,11.82
2022-10-11T14:54:38.202Z,14.52
2022-10-11T14:57:05.249Z,12.88
2022-10-11T14:59:34.167Z,15.27
2022-10-11T15:02:01.419Z,13.75
2022-10-11T15:04:28.014Z,19.17
2022-10-11T15:06:55.811Z,12.30
2022-10-11T15:09:27.859Z,15.05
2022-10-11T15:11:54.904Z,8.93
2022-10-11T15:14:22.294Z,10.15
2022-10-11T15:16:48.765Z,11.20
2022-10-11T15:19:16.903Z,15.55
2022-10-11T15:21:43.464Z,13.65
2022-10-11T15:24:09.969Z,11.40
2022-10-11T15:26:36.479Z,10.63
2022-10-11T15:29:03.157Z,11.02
2022-10-11T15:31:29.626Z,12.10
2022-10-11T15:33:59.499Z,11.55
2022-10-11T15:36:26.288Z,19.42
2022-10-11T15:38:52.821Z,13.75
2022-10-11T15:41:19.991Z,13.65
2022-10-11T15:43:47.886Z,15.45
2022-10-11T15:46:19.440Z,16.55
2022-10-11T15:48:46.571Z,15.68
2022-10-11T15:51:13.046Z,13.20
2022-10-11T15:53:39.552Z,15.65
2022-10-11T15:56:08.168Z,19.98
2022-10-11T15:58:39.866Z,13.23
2022-10-11T16:01:07.912Z,14.15
2022-10-11T16:03:35.064Z,19.45
2022-10-11T16:06:05.208Z,20.05
2022-10-11T16:08:32.315Z,19.65
2022-10-11T16:10:59.229Z,14.05
2022-10-11T16:13:25.695Z,18.60
2022-10-11T16:15:52.286Z,17.35
2022-10-11T16:18:20.902Z,13.23
2022-10-11T16:20:48.238Z,14.75
2022-10-11T16:23:15.327Z,15.73
2022-10-11T16:25:41.861Z,14.63
2022-10-11T16:28:08.762Z,23.38
2022-10-11T16:30:38.624Z,19.08
2022-10-11T16:33:05.281Z,18.90
2022-10-11T16:35:32.749Z,20.63
2022-10-11T16:38:00.194Z,19.00
2022-10-11T16:40:28.183Z,18.80
2022-10-11T16:42:54.647Z,19.67
2022-10-11T16:45:21.182Z,19.58
2022-10-11T16:47:47.665Z,17.85
2022-10-11T16:50:14.884Z,19.08
2022-10-11T16:52:41.360Z,21.17
2022-10-11T16:55:07.953Z,24.90
2022-10-11T16:57:34.503Z,25.02
2022-10-11T17:00:01.040Z,20.83
2022-10-11T17:02:31.493Z,30.13
2022-10-11T17:04:58.711Z,19.42
2022-10-11T17:07:25.204Z,22.42
2022-10-11T17:09:51.720Z,23.50
2022-10-11T17:12:20.051Z,23.30
2022-10-11T17:17:13.016Z,25.67
2022-10-11T17:19:45.394Z,26.08
2022-10-11T17:22:12.943Z,24.63
2022-10-11T17:24:39.522Z,30.23
2022-10-11T17:27:06.351Z,24.88
2022-10-11T17:29:33.285Z,24.80
2022-10-11T17:31:59.831Z,23.35
2022-10-11T17:34:26.355Z,21.75
2022-10-11T17:36:52.888Z,25.25
2022-10-11T17:39:20.729Z,25.83
2022-10-11T17:41:47.546Z,22.42
2022-10-11T17:44:14.258Z,24.92
2022-10-11T17:46:40.823Z,30.02
2022-10-11T17:49:08.273Z,28.90
2022-10-11T17:51:36.069Z,30.80
2022-10-11T17:54:03.849Z,26.63
2022-10-11T17:56:36.613Z,31.02
2022-10-11T17:59:04.082Z,28.70
2022-10-11T18:01:30.656Z,24.42
2022-10-11T18:03:58.289Z,32.65
2022-10-11T18:06:26.347Z,37.42
2022-10-11T18:08:52.856Z,31.58
2022-10-11T18:11:19.880Z,37.88
2022-10-11T18:13:50.318Z,35.60
2022-10-11T18:16:17.915Z,29.02
2022-10-11T18:18:44.517Z,32.90
2022-10-11T18:21:11.538Z,40.88
2022-10-11T18:23:38.438Z,47.15
2022-10-11T18:26:09.246Z,56.95
2022-10-11T18:28:36.032Z,67.32
2022-10-11T18:31:11.541Z,59.30
2022-10-11T18:33:39.292Z,47.15
2022-10-11T18:36:06.782Z,44.95
2022-10-11T18:38:33.615Z,41.33
2022-10-11T18:41:04.718Z,31.80
2022-10-11T18:43:31.452Z,32.67
2022-10-11T18:46:08.404Z,33.35
2022-10-11T18:48:34.973Z,35.45
2022-10-11T18:51:05.973Z,34.13
2022-10-11T18:53:33.613Z,32.47
2022-10-11T18:56:00.914Z,25.33
2022-10-11T18:58:29.125Z,31.73
2022-10-11T19:00:56.089Z,30.35
2022-10-11T19:03:23.285Z,28.23
2022-10-11T19:05:50.779Z,24.23
2022-10-11T19:08:17.336Z,27.85
2022-10-11T19:10:43.802Z,29.45
2022-10-11T19:13:10.316Z,22.80
2022-10-11T19:15:36.838Z,26.13
2022-10-11T19:18:03.454Z,32.03
2022-10-11T19:20:30.225Z,23.40
2022-10-11T19:22:56.790Z,28.90
2022-10-11T19:25:24.352Z,32.33
2022-10-11T19:27:50.953Z,28.05
2022-10-11T19:30:17.592Z,31.55
2022-10-11T19:32:44.226Z,29.45
2022-10-11T19:35:10.974Z,33.00
2022-10-11T19:37:37.577Z,28.88
2022-10-11T19:40:04.250Z,29.02
2022-10-11T19:42:31.137Z,31.85
2022-10-11T19:44:57.978Z,27.50
2022-10-11T19:47:24.491Z,28.77
2022-10-11T19:49:51.102Z,28.00
2022-10-11T19:52:17.545Z,34.15
2022-10-11T19:54:44.297Z,33.85
2022-10-11T19:57:11.018Z,30.75
2022-10-11T19:59:37.863Z,28.30
2022-10-11T20:02:04.415Z,27.08
2022-10-11T20:04:51.512Z,25.13
2022-10-11T20:07:17.724Z,27.27
2022-10-11T20:09:44.371Z,25.00
2022-10-11T20:12:10.828Z,29.88
2022-10-11T20:14:37.354Z,26.35
2022-10-11T20:17:03.864Z,27.85
2022-10-11T20:19:31.621Z,25.75
2022-10-11T20:21:58.887Z,38.42
2022-10-11T20:24:27.467Z,33.15
2022-10-11T20:26:54.594Z,35.30
2022-10-11T20:29:21.317Z,38.42
2022-10-11T20:31:48.087Z,38.65
2022-10-11T20:34:14.645Z,38.72
2022-10-11T20:36:42.195Z,43.78
2022-10-11T20:39:10.384Z,38.75
